Jamie Marie — WDE7178 — position and weather

sailwx.info

Track history (hours):
 
Tides and Currents Weather Stations Pressure Air Temp Water Temp Dewpoint Dewpoint Depression Visibility Wind Speed Wind Dir Waves Ship Positions

Jamie Marie

More information available from US FCC via Universal Licensing System and Coast Guard Vessel Documentation Center.

Last reported at 2014-Jul-22 22:05 UTC. Time now 2014-Jul-24 01:56 UTC.
Position N 46°07' W 124°43'.

Length 30 m.

Type: Fishing. MMSI: 366425240.

Date/timePositionNaut miles runAvg speedWind from/ knotsBaromVisibWave heightAir tempDewpointWater temp
2014-Jul-22 22:05N 46°07' W 124°43'2 2.1
2014-Jul-22 21:08N 46°06' W 124°45'2 2.6
2014-Jul-22 20:33N 46°08' W 124°46'23 5.8
2014-Jul-22 16:33N 46°29' W 124°32'28 3.4
2014-Jul-22 08:17N 46°54' W 124°13'5 1.1
2014-Jul-22 04:15N 46°54' W 124°06'0 0.0
2014-Jul-22 02:04N 46°54' W 124°06'27 0.5
2014-Jul-20 00:20N 46°34' W 124°32'1 0.6
2014-Jul-19 22:20N 46°33' W 124°31'1 0.3
2014-Jul-19 19:16N 46°32' W 124°32'5 6.4
2014-Jul-19 18:32N 46°37' W 124°31'2 1.2
2014-Jul-19 17:04N 46°35' W 124°31'1 1.2
2014-Jul-19 16:04N 46°34' W 124°32'2 2.9
2014-Jul-19 15:29N 46°36' W 124°33'1 1.4
2014-Jul-19 14:27N 46°35' W 124°31'19 4.3
2014-Jul-19 10:04N 46°51' W 124°17'4 7.4
2014-Jul-19 09:32N 46°54' W 124°13'4 0.9
2014-Jul-19 04:22N 46°54' W 124°06'0 0.0
2014-Jul-19 03:33N 46°54' W 124°06'0 0.0
2014-Jul-19 02:33N 46°54' W 124°06'0 0.0
2014-Jul-19 01:32N 46°54' W 124°06'0 0.0
2014-Jul-18 22:06N 46°54' W 124°06'0 0.1
2014-Jul-18 21:16N 46°54' W 124°06'0 0.0
2014-Jul-18 19:32N 46°54' W 124°06'0 0.0
2014-Jul-18 18:33N 46°54' W 124°06'0 0.0
2014-Jul-18 17:11N 46°54' W 124°06'79 2.2
2014-Jul-17 05:27N 47°57' W 125°16'9 1.3
2014-Jul-16 22:32N 47°50' W 125°08'38 7.2
2014-Jul-16 17:15N 47°13' W 124°56'7 7.0
2014-Jul-16 16:12N 47°06' W 124°50'5 6.9
2014-Jul-16 15:32N 47°03' W 124°46'10 6.8
2014-Jul-16 14:04N 46°60' W 124°32'4 7.3
2014-Jul-16 13:33N 46°59' W 124°26'8 7.7
2014-Jul-16 12:31N 46°56' W 124°16'7 6.1
2014-Jul-16 11:28N 46°54' W 124°06'0 0.0
2014-Jul-16 10:33N 46°54' W 124°06'0 0.0
2014-Jul-16 09:33N 46°54' W 124°06'0 0.0
2014-Jul-16 08:33N 46°54' W 124°06'0 0.0
2014-Jul-16 07:33N 46°54' W 124°06'0 0.0
2014-Jul-16 06:33N 46°54' W 124°06'0 0.0
2014-Jul-16 05:33N 46°54' W 124°06'0 0.1
2014-Jul-16 04:32N 46°54' W 124°06'0 0.1
2014-Jul-16 03:33N 46°55' W 124°06'4 4.5
2014-Jul-16 02:34N 46°51' W 124°11'8 7.1
2014-Jul-16 01:30N 46°44' W 124°10'7 6.9
2014-Jul-16 00:31N 46°37' W 124°10'7 7.1
2014-Jul-15 23:33N 46°30' W 124°09'7 7.2
2014-Jul-15 22:33N 46°23' W 124°07'7 7.2
2014-Jul-15 21:33N 46°16' W 124°07'7 7.4
2014-Jul-15 20:34N 46°08' W 124°05'8 7.9
2014-Jul-15 19:33N 46°01' W 124°02'8 7.8
2014-Jul-15 18:33N 45°53' W 124°02'7 7.2
2014-Jul-15 17:34N 45°46' W 124°02'8 7.1
2014-Jul-15 16:29N 45°39' W 124°02'7 6.6
2014-Jul-15 15:22N 45°31' W 124°03'51 6.6
2014-Jul-15 07:33N 44°40' W 124°09'  
2014-Jul-12 23:21N 45°20' W 124°13'  
Track history (hours):
 
Tides and Currents Weather Stations Pressure Air Temp Water Temp Dewpoint Dewpoint Depression Visibility Wind Speed Wind Dir Waves Ship Positions

Jamie Marie

More information available from US FCC via Universal Licensing System and Coast Guard Vessel Documentation Center.

Last reported at 2014-Jul-22 22:05 UTC. Time now 2014-Jul-24 01:56 UTC.
Position N 46°07' W 124°43'.

Length 30 m.

Type: Fishing. MMSI: 366425240.

Date/timePositionNaut miles runAvg speedWind from/ knotsBaromVisibWave heightAir tempDewpointWater temp
2014-Jul-22 22:05N 46°07' W 124°43'2 2.1
2014-Jul-22 21:08N 46°06' W 124°45'2 2.6
2014-Jul-22 20:33N 46°08' W 124°46'23 5.8
2014-Jul-22 16:33N 46°29' W 124°32'28 3.4
2014-Jul-22 08:17N 46°54' W 124°13'5 1.1
2014-Jul-22 04:15N 46°54' W 124°06'0 0.0
2014-Jul-22 02:04N 46°54' W 124°06'27 0.5
2014-Jul-20 00:20N 46°34' W 124°32'1 0.6
2014-Jul-19 22:20N 46°33' W 124°31'1 0.3
2014-Jul-19 19:16N 46°32' W 124°32'5 6.4
2014-Jul-19 18:32N 46°37' W 124°31'2 1.2
2014-Jul-19 17:04N 46°35' W 124°31'1 1.2
2014-Jul-19 16:04N 46°34' W 124°32'2 2.9
2014-Jul-19 15:29N 46°36' W 124°33'1 1.4
2014-Jul-19 14:27N 46°35' W 124°31'19 4.3
2014-Jul-19 10:04N 46°51' W 124°17'4 7.4
2014-Jul-19 09:32N 46°54' W 124°13'4 0.9
2014-Jul-19 04:22N 46°54' W 124°06'0 0.0
2014-Jul-19 03:33N 46°54' W 124°06'0 0.0
2014-Jul-19 02:33N 46°54' W 124°06'0 0.0
2014-Jul-19 01:32N 46°54' W 124°06'0 0.0
2014-Jul-18 22:06N 46°54' W 124°06'0 0.1
2014-Jul-18 21:16N 46°54' W 124°06'0 0.0
2014-Jul-18 19:32N 46°54' W 124°06'0 0.0
2014-Jul-18 18:33N 46°54' W 124°06'0 0.0
2014-Jul-18 17:11N 46°54' W 124°06'79 2.2
2014-Jul-17 05:27N 47°57' W 125°16'9 1.3
2014-Jul-16 22:32N 47°50' W 125°08'38 7.2
2014-Jul-16 17:15N 47°13' W 124°56'7 7.0
2014-Jul-16 16:12N 47°06' W 124°50'5 6.9
2014-Jul-16 15:32N 47°03' W 124°46'10 6.8
2014-Jul-16 14:04N 46°60' W 124°32'4 7.3
2014-Jul-16 13:33N 46°59' W 124°26'8 7.7
2014-Jul-16 12:31N 46°56' W 124°16'7 6.1
2014-Jul-16 11:28N 46°54' W 124°06'0 0.0
2014-Jul-16 10:33N 46°54' W 124°06'0 0.0
2014-Jul-16 09:33N 46°54' W 124°06'0 0.0
2014-Jul-16 08:33N 46°54' W 124°06'0 0.0
2014-Jul-16 07:33N 46°54' W 124°06'0 0.0
2014-Jul-16 06:33N 46°54' W 124°06'0 0.0
2014-Jul-16 05:33N 46°54' W 124°06'0 0.1
2014-Jul-16 04:32N 46°54' W 124°06'0 0.1
2014-Jul-16 03:33N 46°55' W 124°06'4 4.5
2014-Jul-16 02:34N 46°51' W 124°11'8 7.1
2014-Jul-16 01:30N 46°44' W 124°10'7 6.9
2014-Jul-16 00:31N 46°37' W 124°10'7 7.1
2014-Jul-15 23:33N 46°30' W 124°09'7 7.2
2014-Jul-15 22:33N 46°23' W 124°07'7 7.2
2014-Jul-15 21:33N 46°16' W 124°07'7 7.4
2014-Jul-15 20:34N 46°08' W 124°05'8 7.9
2014-Jul-15 19:33N 46°01' W 124°02'8 7.8
2014-Jul-15 18:33N 45°53' W 124°02'7 7.2
2014-Jul-15 17:34N 45°46' W 124°02'8 7.1
2014-Jul-15 16:29N 45°39' W 124°02'7 6.6
2014-Jul-15 15:22N 45°31' W 124°03'51 6.6
2014-Jul-15 07:33N 44°40' W 124°09'  
2014-Jul-12 23:21N 45°20' W 124°13'  

Dump ship's entire track history